createdAt,value
2022-08-10T00:01:54.393Z,99380.38
2022-08-10T00:04:24.739Z,99382.75
2022-08-10T00:06:55.812Z,99376.53
2022-08-10T00:09:24.255Z,99376.84
2022-08-10T00:11:52.322Z,99377.38
2022-08-10T00:14:20.584Z,99380.28
2022-08-10T00:16:48.986Z,99385.22
2022-08-10T00:19:18.291Z,99381.59
2022-08-10T00:21:47.529Z,99370.97
2022-08-10T00:24:16.322Z,99369.91
2022-08-10T00:28:01.503Z,99375.81
2022-08-10T00:29:32.160Z,99369.53
2022-08-10T00:32:00.182Z,99367.69
2022-08-10T00:34:30.008Z,99363.13
2022-08-10T00:36:58.619Z,99361.56
2022-08-10T00:39:28.217Z,99358.41
2022-08-10T00:42:07.171Z,99359.38
2022-08-10T00:44:50.129Z,99360.66
2022-08-10T00:47:37.036Z,99365.00
2022-08-10T00:50:08.240Z,99364.47
2022-08-10T00:52:38.228Z,99367.31
2022-08-10T00:55:06.496Z,99368.00
2022-08-10T00:57:35.891Z,99367.00
2022-08-10T01:00:07.382Z,99368.00
2022-08-10T01:02:35.661Z,99375.31
2022-08-10T01:05:09.701Z,99372.47
2022-08-10T01:08:15.608Z,99368.38
2022-08-10T01:12:39.549Z,99367.59
2022-08-10T01:14:33.646Z,99355.16
2022-08-10T01:17:15.427Z,99354.63
2022-08-10T01:20:30.626Z,99351.50
2022-08-10T01:23:17.652Z,99343.75
2022-08-10T01:26:40.676Z,99340.41
2022-08-10T01:30:05.118Z,99351.78
2022-08-10T01:33:13.243Z,99356.44
2022-08-10T01:35:59.812Z,99359.09
2022-08-10T01:38:36.241Z,99359.09
2022-08-10T01:41:10.310Z,99353.13
2022-08-10T01:43:46.665Z,99352.03
2022-08-10T01:46:17.673Z,99354.09
2022-08-10T01:48:54.900Z,99357.22
2022-08-10T01:51:32.911Z,99363.97
2022-08-10T01:54:12.747Z,99363.44
2022-08-10T01:56:50.692Z,99356.16
2022-08-10T01:59:34.016Z,99352.78
2022-08-10T02:02:09.928Z,99352.69
2022-08-10T02:04:43.061Z,99353.38
2022-08-10T02:07:18.558Z,99350.19
2022-08-10T02:09:53.493Z,99355.53
2022-08-10T02:12:26.632Z,99354.47
2022-08-10T02:15:07.488Z,99358.31
2022-08-10T02:17:59.529Z,99359.88
2022-08-10T02:20:41.101Z,99358.38
2022-08-10T02:23:18.017Z,99362.81
2022-08-10T02:25:47.775Z,99362.09
2022-08-10T02:28:29.800Z,99365.22
2022-08-10T02:31:06.534Z,99355.41
2022-08-10T02:33:38.332Z,99363.16
2022-08-10T02:36:10.308Z,99358.75
2022-08-10T02:38:58.495Z,99359.56
2022-08-10T02:45:13.533Z,99366.78
2022-08-10T02:45:31.794Z,99361.56
2022-08-10T02:48:07.622Z,99358.97
2022-08-10T02:50:38.778Z,99359.44
2022-08-10T02:53:56.374Z,99362.81
2022-08-10T02:56:37.836Z,99360.47
2022-08-10T02:59:39.840Z,99352.16
2022-08-10T03:02:20.253Z,99351.13
2022-08-10T03:04:55.511Z,99351.91
2022-08-10T03:07:44.649Z,99357.63
2022-08-10T03:10:21.646Z,99351.22
2022-08-10T03:12:53.541Z,99353.47
2022-08-10T03:15:24.279Z,99353.47
2022-08-10T03:17:58.094Z,99357.41
2022-08-10T03:20:40.274Z,99354.09
2022-08-10T03:23:19.233Z,99363.41
2022-08-10T03:25:54.632Z,99365.22
2022-08-10T03:28:31.961Z,99362.38
2022-08-10T03:31:02.372Z,99363.66
2022-08-10T03:33:35.575Z,99363.38
2022-08-10T03:36:43.573Z,99357.88
2022-08-10T03:38:52.822Z,99365.13
2022-08-10T03:41:35.639Z,99375.97
2022-08-10T03:44:05.294Z,99372.22
2022-08-10T03:46:38.999Z,99374.28
2022-08-10T03:49:08.037Z,99368.78
2022-08-10T03:51:37.975Z,99375.47
2022-08-10T03:54:07.593Z,99379.00
2022-08-10T03:56:39.292Z,99380.25
2022-08-10T03:59:14.160Z,99384.94
2022-08-10T04:02:45.769Z,99386.50
2022-08-10T04:04:35.265Z,99384.41
2022-08-10T04:07:04.427Z,99384.47
2022-08-10T04:09:53.246Z,99390.22
2022-08-10T04:12:24.784Z,99401.56
2022-08-10T04:14:53.698Z,99402.56
2022-08-10T04:17:57.502Z,99403.59
2022-08-10T04:20:19.716Z,99394.81
2022-08-10T04:22:52.447Z,99413.94
2022-08-10T04:25:23.752Z,99403.31
2022-08-10T04:27:53.375Z,99405.09
2022-08-10T04:30:21.766Z,99400.47
2022-08-10T04:32:55.190Z,99404.63
2022-08-10T04:35:26.187Z,99398.91
2022-08-10T04:37:57.018Z,99402.81
2022-08-10T04:40:30.360Z,99404.38
2022-08-10T04:43:07.481Z,99402.69
2022-08-10T04:45:49.081Z,99398.56
2022-08-10T04:48:41.200Z,99407.97
2022-08-10T04:51:18.915Z,99407.81
2022-08-10T04:54:05.579Z,99401.97
2022-08-10T04:56:37.579Z,99402.84
2022-08-10T04:59:09.513Z,99402.69
2022-08-10T05:02:22.282Z,99404.53
2022-08-10T05:04:35.882Z,99409.00
2022-08-10T05:07:18.130Z,99406.97
2022-08-10T05:10:03.823Z,99410.41
2022-08-10T05:12:37.090Z,99411.47
2022-08-10T05:15:12.054Z,99407.16
2022-08-10T05:17:43.505Z,99414.88
2022-08-10T05:20:30.296Z,99414.88
2022-08-10T05:22:58.481Z,99417.75
2022-08-10T05:25:26.523Z,99419.56
2022-08-10T05:27:57.418Z,99403.53
2022-08-10T05:30:25.813Z,99406.13
2022-08-10T05:32:57.873Z,99408.47
2022-08-10T05:35:56.719Z,99406.97
2022-08-10T05:38:22.018Z,99406.22
2022-08-10T05:40:50.601Z,99411.16
2022-08-10T05:43:22.313Z,99401.09
2022-08-10T05:46:17.006Z,99401.34
2022-08-10T05:48:56.822Z,99405.78
2022-08-10T05:51:30.591Z,99396.97
2022-08-10T05:54:06.071Z,99403.97
2022-08-10T05:56:55.828Z,99409.94
2022-08-10T06:00:32.813Z,99414.06
2022-08-10T06:02:32.957Z,99416.59
2022-08-10T06:05:14.777Z,99415.03
2022-08-10T06:07:57.811Z,99412.44
2022-08-10T06:10:32.269Z,99412.69
2022-08-10T06:13:29.815Z,99417.59
2022-08-10T06:16:09.253Z,99407.75
2022-08-10T06:18:37.908Z,99409.13
2022-08-10T06:21:09.731Z,99409.94
2022-08-10T06:23:41.857Z,99405.34
2022-08-10T06:26:14.020Z,99407.69
2022-08-10T06:29:02.347Z,99408.22
2022-08-10T06:31:48.606Z,99414.22
2022-08-10T06:34:32.152Z,99418.97
2022-08-10T06:37:05.423Z,99409.13
2022-08-10T06:39:35.532Z,99410.22
2022-08-10T06:42:40.577Z,99406.59
2022-08-10T06:45:14.129Z,99405.88
2022-08-10T06:47:56.704Z,99409.56
2022-08-10T06:50:34.906Z,99416.31
2022-08-10T06:53:23.887Z,99399.78
2022-08-10T06:56:18.910Z,99408.91
2022-08-10T06:59:21.741Z,99401.69
2022-08-10T07:02:01.215Z,99400.97
2022-08-10T07:04:44.225Z,99405.94
2022-08-10T07:07:18.382Z,99407.53
2022-08-10T07:09:49.429Z,99407.00
2022-08-10T07:12:21.392Z,99407.31
2022-08-10T07:14:52.086Z,99415.38
2022-08-10T07:17:23.143Z,99405.78
2022-08-10T07:19:56.583Z,99413.84
2022-08-10T07:23:27.018Z,99415.19
2022-08-10T07:25:29.759Z,99407.38
2022-08-10T07:28:02.065Z,99412.34
2022-08-10T07:30:36.171Z,99418.56
2022-08-10T07:33:06.503Z,99419.13
2022-08-10T07:35:43.224Z,99415.19
2022-08-10T07:38:27.142Z,99421.66
2022-08-10T07:41:00.302Z,99418.81
2022-08-10T07:43:36.167Z,99419.03
2022-08-10T07:46:12.276Z,99420.63
2022-08-10T07:49:02.703Z,99420.91
2022-08-10T07:51:54.492Z,99417.53
2022-08-10T07:54:30.002Z,99409.06
2022-08-10T07:57:03.230Z,99415.81
2022-08-10T07:59:43.138Z,99414.78
2022-08-10T08:02:26.261Z,99409.84
2022-08-10T08:05:02.922Z,99411.44
2022-08-10T08:07:32.602Z,99411.97
2022-08-10T08:10:02.314Z,99412.56
2022-08-10T08:12:36.731Z,99408.94
2022-08-10T08:16:15.729Z,99408.50
2022-08-10T08:18:01.688Z,99396.00
2022-08-10T08:20:30.569Z,99395.75
2022-08-10T08:24:06.835Z,99398.31
2022-08-10T08:25:49.405Z,99403.03
2022-08-10T08:28:18.136Z,99401.72
2022-08-10T08:30:49.064Z,99383.00
2022-08-10T08:33:20.072Z,99398.34
2022-08-10T08:36:08.807Z,99388.13
2022-08-10T08:38:38.414Z,99391.72
2022-08-10T08:41:21.013Z,99394.28
2022-08-10T08:44:14.495Z,99380.41
2022-08-10T08:48:03.289Z,99390.28
2022-08-10T08:50:57.525Z,99388.59
2022-08-10T08:54:05.055Z,99387.22
2022-08-10T08:56:54.272Z,99381.44
2022-08-10T08:59:47.924Z,99361.28
2022-08-10T09:02:39.046Z,99370.25
2022-08-10T09:05:59.330Z,99371.06
2022-08-10T09:08:55.358Z,99364.69
2022-08-10T09:12:25.530Z,99356.97
2022-08-10T09:15:39.721Z,99363.88
2022-08-10T09:18:19.764Z,99354.31
2022-08-10T09:21:01.047Z,99356.34
2022-08-10T09:24:03.996Z,99364.16
2022-08-10T09:26:48.750Z,99362.44
2022-08-10T09:29:24.284Z,99358.28
2022-08-10T09:36:14.338Z,99351.34
2022-08-10T09:36:20.908Z,99348.09
2022-08-10T09:38:42.263Z,99353.38
2022-08-10T09:41:45.851Z,99343.03
2022-08-10T09:44:58.226Z,99345.63
2022-08-10T09:48:02.155Z,99340.81
2022-08-10T09:51:45.810Z,99343.09
2022-08-10T09:55:06.714Z,99342.56
2022-08-10T09:57:47.528Z,99341.88
2022-08-10T10:00:21.358Z,99342.66
2022-08-10T10:03:26.207Z,99338.00
2022-08-10T10:06:05.718Z,99340.81
2022-08-10T10:09:15.691Z,99343.63
2022-08-10T10:12:20.085Z,99347.38
2022-08-10T10:15:43.855Z,99338.50
2022-08-10T10:18:48.998Z,99333.94
2022-08-10T10:21:55.119Z,99327.41
2022-08-10T10:24:57.465Z,99324.31
2022-08-10T10:27:38.361Z,99319.22
2022-08-10T10:30:12.453Z,99321.94
2022-08-10T10:33:25.185Z,99327.41
2022-08-10T10:35:56.068Z,99316.53
2022-08-10T10:38:32.749Z,99317.56
2022-08-10T10:41:31.700Z,99318.72
2022-08-10T10:45:02.020Z,99315.25
2022-08-10T10:48:37.387Z,99325.81
2022-08-10T10:51:27.982Z,99323.97
2022-08-10T10:54:19.476Z,99335.19
2022-08-10T10:57:58.699Z,99329.00
2022-08-10T11:00:14.680Z,99331.78
2022-08-10T11:03:01.069Z,99328.81
2022-08-10T11:05:50.583Z,99324.38
2022-08-10T11:08:31.479Z,99321.28
2022-08-10T11:11:59.648Z,99316.81
2022-08-10T11:14:29.667Z,99314.13
2022-08-10T11:17:22.661Z,99307.50
2022-08-10T11:20:52.114Z,99298.75
2022-08-10T11:24:47.559Z,99293.44
2022-08-10T11:27:21.958Z,99307.88
2022-08-10T11:30:08.299Z,99298.31
2022-08-10T11:32:58.869Z,99283.50
2022-08-10T11:35:41.783Z,99297.19
2022-08-10T11:38:32.212Z,99283.50
2022-08-10T11:42:07.093Z,99296.78
2022-08-10T11:44:45.964Z,99293.69
2022-08-10T11:47:23.507Z,99287.72
2022-08-10T11:50:25.221Z,99284.50
2022-08-10T11:53:27.090Z,99285.47
2022-08-10T11:56:12.045Z,99289.38
2022-08-10T11:59:16.848Z,99284.13
2022-08-10T12:01:48.391Z,99283.69
2022-08-10T12:04:18.906Z,99282.78
2022-08-10T12:06:56.724Z,99280.34
2022-08-10T12:10:11.451Z,99275.84
2022-08-10T12:12:17.662Z,99269.28
2022-08-10T12:15:03.961Z,99268.81
2022-08-10T12:17:40.041Z,99266.91
2022-08-10T12:20:18.070Z,99260.69
2022-08-10T12:23:46.103Z,99264.78
2022-08-10T12:26:42.637Z,99262.03
2022-08-10T12:29:25.252Z,99265.75
2022-08-10T12:32:30.152Z,99257.06
2022-08-10T12:35:07.013Z,99249.63
2022-08-10T12:37:43.570Z,99250.50
2022-08-10T12:40:53.623Z,99255.56
2022-08-10T12:44:07.896Z,99243.56
2022-08-10T12:46:58.742Z,99239.03
2022-08-10T12:49:34.383Z,99240.81
2022-08-10T12:52:51.638Z,99231.63
2022-08-10T12:55:22.237Z,99240.09
2022-08-10T12:58:59.134Z,99225.47
2022-08-10T13:01:16.139Z,99217.41
2022-08-10T13:04:21.826Z,99224.91
2022-08-10T13:06:49.951Z,99218.47
2022-08-10T13:09:27.338Z,99213.16
2022-08-10T13:12:36.581Z,99210.03
2022-08-10T13:15:00.081Z,99219.72
2022-08-10T13:17:39.576Z,99209.25
2022-08-10T13:20:19.990Z,99214.31
2022-08-10T13:22:51.706Z,99208.91
2022-08-10T13:25:35.342Z,99205.63
2022-08-10T13:28:36.365Z,99205.72
2022-08-10T13:31:06.855Z,99205.50
2022-08-10T13:34:39.342Z,99202.28
2022-08-10T13:36:31.064Z,99200.34
2022-08-10T13:39:00.569Z,99187.56
2022-08-10T13:41:34.098Z,99199.00
2022-08-10T13:44:02.169Z,99197.25
2022-08-10T13:46:31.674Z,99195.50
2022-08-10T13:49:05.691Z,99194.16
2022-08-10T13:51:56.725Z,99198.50
2022-08-10T13:54:40.130Z,99195.72
2022-08-10T13:57:11.749Z,99199.78
2022-08-10T14:00:35.270Z,99195.31
2022-08-10T14:02:48.444Z,99200.34
2022-08-10T14:05:28.020Z,99196.47
2022-08-10T14:08:00.435Z,99186.06
2022-08-10T14:11:10.035Z,99185.91
2022-08-10T14:13:27.706Z,99186.38
2022-08-10T14:15:58.693Z,99179.38
2022-08-10T14:18:27.661Z,99189.06
2022-08-10T14:20:59.219Z,99178.22
2022-08-10T14:23:28.175Z,99172.00
2022-08-10T14:26:09.093Z,99166.00
2022-08-10T14:28:44.117Z,99165.00
2022-08-10T14:31:22.185Z,99175.72
2022-08-10T14:33:57.920Z,99169.16
2022-08-10T14:36:57.330Z,99173.31
2022-08-10T14:39:42.803Z,99168.41
2022-08-10T14:42:27.011Z,99174.75
2022-08-10T14:45:26.717Z,99168.94
2022-08-10T14:48:09.036Z,99177.13
2022-08-10T14:50:55.479Z,99173.03
2022-08-10T14:53:29.557Z,99172.44
2022-08-10T14:56:10.956Z,99176.69
2022-08-10T14:59:07.688Z,99176.66
2022-08-10T15:02:01.289Z,99174.72
2022-08-10T15:04:34.377Z,99170.38
2022-08-10T15:07:28.247Z,99177.34
2022-08-10T15:10:00.565Z,99166.56
2022-08-10T15:12:38.662Z,99165.25
2022-08-10T15:15:16.526Z,99170.47
2022-08-10T15:17:57.636Z,99166.84
2022-08-10T15:20:29.626Z,99172.56
2022-08-10T15:23:29.731Z,99172.50
2022-08-10T15:26:10.995Z,99162.69
2022-08-10T15:29:22.532Z,99162.63
2022-08-10T15:31:57.196Z,99160.47
2022-08-10T15:34:46.387Z,99159.66
2022-08-10T15:37:39.422Z,99163.47
2022-08-10T15:40:24.438Z,99168.28
2022-08-10T15:43:05.688Z,99158.50
2022-08-10T15:46:17.511Z,99155.06
2022-08-10T15:49:02.356Z,99161.75
2022-08-10T15:51:53.731Z,99170.84
2022-08-10T15:54:33.781Z,99164.69
2022-08-10T15:57:19.748Z,99161.78
2022-08-10T15:59:57.874Z,99162.97
2022-08-10T16:02:32.662Z,99162.81
2022-08-10T16:05:13.968Z,99170.41
2022-08-10T16:07:50.594Z,99174.78
2022-08-10T16:10:28.597Z,99181.16
2022-08-10T16:14:00.276Z,99173.66
2022-08-10T16:16:02.025Z,99175.97
2022-08-10T16:18:34.811Z,99171.69
2022-08-10T16:21:17.883Z,99174.09
2022-08-10T16:24:14.255Z,99178.34
2022-08-10T16:26:51.309Z,99179.44
2022-08-10T16:29:26.092Z,99188.41
2022-08-10T16:32:03.490Z,99188.97
2022-08-10T16:34:36.329Z,99189.06
2022-08-10T16:37:15.775Z,99196.88
2022-08-10T16:39:57.060Z,99186.00
2022-08-10T16:42:43.000Z,99190.72
2022-08-10T16:45:31.717Z,99184.03
2022-08-10T16:48:01.698Z,99178.31
2022-08-10T16:50:36.677Z,99186.13
2022-08-10T16:53:11.155Z,99190.84
2022-08-10T16:55:48.240Z,99202.03
2022-08-10T16:58:29.494Z,99190.63
2022-08-10T17:01:04.814Z,99198.72
2022-08-10T17:04:05.623Z,99193.00
2022-08-10T17:06:41.091Z,99200.81
2022-08-10T17:09:16.644Z,99201.31
2022-08-10T17:11:50.154Z,99198.44
2022-08-10T17:14:26.281Z,99198.19
2022-08-10T17:17:02.301Z,99202.59
2022-08-10T17:19:45.823Z,99199.00
2022-08-10T17:22:21.504Z,99201.59
2022-08-10T17:25:04.355Z,99193.00
2022-08-10T17:28:04.090Z,99199.25
2022-08-10T17:30:35.061Z,99203.91
2022-08-10T17:33:20.814Z,99219.03
2022-08-10T17:35:52.696Z,99208.06
2022-08-10T17:38:27.273Z,99211.94
2022-08-10T17:41:03.893Z,99215.84
2022-08-10T17:44:00.633Z,99220.53
2022-08-10T17:46:27.565Z,99211.13
2022-08-10T17:48:56.825Z,99219.44
2022-08-10T17:51:30.566Z,99216.31
2022-08-10T17:54:03.703Z,99218.13
2022-08-10T17:56:34.558Z,99217.88
2022-08-10T17:59:17.334Z,99218.97
2022-08-10T18:01:58.646Z,99229.91
2022-08-10T18:04:41.876Z,99235.66
2022-08-10T18:07:12.550Z,99228.63
2022-08-10T18:09:52.435Z,99226.06
2022-08-10T18:12:38.790Z,99237.25
2022-08-10T18:15:13.686Z,99232.09
2022-08-10T18:17:48.403Z,99240.16
2022-08-10T18:20:20.247Z,99249.22
2022-08-10T18:22:58.435Z,99245.09
2022-08-10T18:25:32.930Z,99245.69
2022-08-10T18:28:05.714Z,99257.13
2022-08-10T18:30:45.770Z,99256.09
2022-08-10T18:33:16.517Z,99258.19
2022-08-10T18:35:47.220Z,99260.03
2022-08-10T18:38:17.422Z,99258.47
2022-08-10T18:40:57.365Z,99264.19
2022-08-10T18:44:05.807Z,99271.72
2022-08-10T18:46:32.271Z,99266.03
2022-08-10T18:49:16.369Z,99266.53
2022-08-10T18:51:47.521Z,99266.00
2022-08-10T18:54:39.655Z,99261.84
2022-08-10T18:57:52.026Z,99266.78
2022-08-10T19:00:25.348Z,99266.78
2022-08-10T19:03:25.715Z,99270.69
2022-08-10T19:06:33.388Z,99266.00
2022-08-10T19:09:46.712Z,99261.56
2022-08-10T19:12:31.655Z,99271.16
2022-08-10T19:15:23.186Z,99264.94
2022-08-10T19:18:19.823Z,99268.03
2022-08-10T19:20:57.669Z,99263.88
2022-08-10T19:23:54.414Z,99268.03
2022-08-10T19:26:57.371Z,99266.94
2022-08-10T19:30:09.255Z,99268.75
2022-08-10T19:32:41.429Z,99261.97
2022-08-10T19:35:22.967Z,99269.25
2022-08-10T19:38:32.091Z,99260.13
2022-08-10T19:41:42.017Z,99272.03
2022-08-10T19:44:26.332Z,99267.34
2022-08-10T19:47:16.221Z,99270.19
2022-08-10T19:50:05.287Z,99276.66
2022-08-10T19:53:10.095Z,99270.38
2022-08-10T19:55:54.159Z,99271.13
2022-08-10T20:00:17.401Z,99273.94
2022-08-10T20:02:26.758Z,99279.59
2022-08-10T20:05:18.180Z,99277.47
2022-08-10T20:08:28.098Z,99272.25
2022-08-10T20:11:44.346Z,99272.97
2022-08-10T20:14:39.333Z,99269.50
2022-08-10T20:17:22.680Z,99276.66
2022-08-10T20:20:12.092Z,99282.25
2022-08-10T20:22:48.739Z,99275.41
2022-08-10T20:25:30.423Z,99275.66
2022-08-10T20:28:31.888Z,99274.88
2022-08-10T20:31:17.734Z,99281.31
2022-08-10T20:34:07.427Z,99281.06
2022-08-10T20:36:46.511Z,99282.09
2022-08-10T20:39:27.819Z,99280.81
2022-08-10T20:42:08.568Z,99284.09
2022-08-10T20:44:53.790Z,99287.19
2022-08-10T20:48:07.280Z,99287.63
2022-08-10T20:50:40.285Z,99283.94
2022-08-10T20:53:29.652Z,99295.81
2022-08-10T20:56:33.643Z,99291.84
2022-08-10T20:59:24.479Z,99295.66
2022-08-10T21:02:47.946Z,99289.66
2022-08-10T21:05:58.638Z,99296.47
2022-08-10T21:08:51.087Z,99292.81
2022-08-10T21:12:07.124Z,99294.25
2022-08-10T21:14:47.795Z,99295.22
2022-08-10T21:18:04.308Z,99289.75
2022-08-10T21:21:12.765Z,99297.44
2022-08-10T21:23:54.500Z,99290.13
2022-08-10T21:26:42.316Z,99296.13
2022-08-10T21:30:00.400Z,99295.06
2022-08-10T21:33:09.189Z,99290.84
2022-08-10T21:35:48.565Z,99288.50
2022-08-10T21:38:46.035Z,99296.94
2022-08-10T21:41:58.815Z,99296.38
2022-08-10T21:45:07.985Z,99291.66
2022-08-10T21:48:04.943Z,99285.41
2022-08-10T21:51:14.840Z,99287.13
2022-08-10T21:54:44.927Z,99279.00
2022-08-10T21:57:43.538Z,99276.66
2022-08-10T22:03:47.860Z,99294.31
2022-08-10T22:06:52.709Z,99289.41
2022-08-10T22:09:47.125Z,99284.00
2022-08-10T22:12:46.797Z,99286.03
2022-08-10T22:16:05.390Z,99285.41
2022-08-10T22:18:58.771Z,99289.03
2022-08-10T22:22:27.297Z,99285.34
2022-08-10T22:28:23.815Z,99285.50
2022-08-10T22:31:27.957Z,99282.44
2022-08-10T22:31:33.561Z,99280.03
2022-08-10T22:34:40.753Z,99281.28
2022-08-10T22:37:42.162Z,99287.16
2022-08-10T22:40:46.979Z,99290.53
2022-08-10T22:43:46.544Z,99284.03
2022-08-10T22:46:47.600Z,99283.47
2022-08-10T22:49:25.675Z,99281.59
2022-08-10T22:52:17.969Z,99288.56
2022-08-10T22:55:15.793Z,99288.22
2022-08-10T22:58:08.327Z,99282.75
2022-08-10T23:00:37.637Z,99280.97
2022-08-10T23:03:16.501Z,99266.78
2022-08-10T23:05:58.947Z,99276.13
2022-08-10T23:08:47.124Z,99279.16
2022-08-10T23:11:30.129Z,99277.59
2022-08-10T23:14:05.752Z,99282.28
2022-08-10T23:17:07.233Z,99275.25
2022-08-10T23:19:58.029Z,99280.25
2022-08-10T23:22:45.511Z,99280.88
2022-08-10T23:25:20.399Z,99271.47
2022-08-10T23:27:56.143Z,99280.22
2022-08-10T23:30:37.998Z,99272.34
2022-08-10T23:33:14.336Z,99272.34
2022-08-10T23:36:29.469Z,99268.00
2022-08-10T23:38:42.155Z,99271.13
2022-08-10T23:41:12.199Z,99273.28
2022-08-10T23:44:03.328Z,99275.66
2022-08-10T23:46:41.587Z,99268.59
2022-08-10T23:49:12.335Z,99266.47
2022-08-10T23:51:55.503Z,99267.44
2022-08-10T23:54:25.848Z,99264.50
2022-08-10T23:57:01.096Z,99270.91
2022-08-10T23:59:32.359Z,99270.38
